Time;durP1;ratioP1;P1;durP2;ratioP2;P2;SDS_P1;SDS_P2;PMS_P1;PMS_P2;Temp;Humidity;BMP_temperature;BMP_pressure;BME280_temperature;BME280_humidity;BME280_pressure;Samples;Min_cycle;Max_cycle;Signal;HPM_P1;HPM_P2
2022/05/07 00:00:04;;;;;;;33.70;24.65;;;;;;;11.56;100.00;102242.53;10504085;28;20106;-69
2022/05/07 00:05:05;;;;;;;38.97;24.58;;;;;;;11.61;100.00;102239.91;10503190;28;20032;-70
2022/05/07 00:10:06;;;;;;;43.53;26.88;;;;;;;11.51;100.00;102224.75;10516407;28;20025;-70
2022/05/07 00:15:07;;;;;;;41.72;26.23;;;;;;;11.62;100.00;102244.38;10500246;28;20480;-70
2022/05/07 00:20:09;;;;;;;42.45;26.42;;;;;;;11.61;100.00;102242.69;10481132;28;20069;-70
2022/05/07 00:25:09;;;;;;;44.08;28.33;;;;;;;11.69;100.00;102236.88;10457597;28;20045;-70
2022/05/07 00:30:10;;;;;;;45.85;28.13;;;;;;;11.73;100.00;102232.56;10476601;28;20071;-69
2022/05/07 00:35:11;;;;;;;43.45;27.40;;;;;;;11.76;100.00;102232.13;10460095;28;20058;-70
2022/05/07 00:40:11;;;;;;;41.40;26.52;;;;;;;11.79;100.00;102233.59;10459321;28;20056;-70
2022/05/07 00:45:12;;;;;;;46.90;30.95;;;;;;;11.67;100.00;102217.78;10457655;28;20033;-70
2022/05/07 00:55:31;;;;;;;41.58;29.92;;;;;;;11.73;100.00;102224.28;10475567;28;20044;-70
2022/05/07 01:00:32;;;;;;;41.58;29.85;;;;;;;11.70;100.00;102222.00;10477988;28;20037;-70
2022/05/07 01:05:32;;;;;;;45.95;30.27;;;;;;;11.70;100.00;102222.00;10438422;28;20048;-70
2022/05/07 01:10:33;;;;;;;45.17;32.08;;;;;;;11.67;100.00;102217.78;10440040;28;20044;-70
2022/05/07 01:15:44;;;;;;;43.60;29.73;;;;;;;11.65;100.00;102210.81;10455895;28;20045;-69
2022/05/07 01:20:45;;;;;;;46.50;29.48;;;;;;;11.65;100.00;102219.06;10453439;28;20064;-69
2022/05/07 01:25:45;;;;;;;42.60;28.55;;;;;;;11.65;100.00;102210.81;10457548;28;20037;-69
2022/05/07 01:30:47;;;;;;;43.65;28.63;;;;;;;11.57;100.00;102200.06;10457139;28;20495;-69
2022/05/07 01:35:47;;;;;;;40.50;28.20;;;;;;;11.57;100.00;102206.41;10456834;28;20040;-69
2022/05/07 01:40:48;;;;;;;43.67;30.33;;;;;;;11.54;100.00;102209.66;10456964;28;20043;-70
2022/05/07 01:45:48;;;;;;;48.85;33.67;;;;;;;11.50;100.00;102200.97;10455009;28;20029;-69
2022/05/07 01:50:48;;;;;;;46.90;32.00;;;;;;;11.41;100.00;102196.84;10454320;28;20029;-69
2022/05/07 01:55:49;;;;;;;54.63;34.28;;;;;;;11.27;100.00;102181.50;10458119;28;20049;-69
2022/05/07 02:00:49;;;;;;;58.53;35.35;;;;;;;11.37;100.00;102195.63;10437939;28;20564;-69
2022/05/07 02:05:50;;;;;;;61.45;37.70;;;;;;;11.40;100.00;102200.66;10462848;28;20480;-69
2022/05/07 02:10:50;;;;;;;58.13;37.33;;;;;;;11.38;100.00;102197.28;10462062;28;20037;-69
2022/05/07 02:15:51;;;;;;;62.28;36.85;;;;;;;11.37;100.00;102192.84;10453081;28;20033;-69
2022/05/07 02:20:53;;;;;;;64.57;39.70;;;;;;;11.34;100.00;102193.28;10455286;28;20474;-68
2022/05/07 02:25:53;;;;;;;60.90;40.30;;;;;;;11.39;100.00;102198.13;10457481;28;20047;-69
2022/05/07 02:30:54;;;;;;;65.13;40.40;;;;;;;11.32;100.00;102178.91;10475204;28;20058;-70
2022/05/07 02:35:54;;;;;;;67.75;39.67;;;;;;;11.37;100.00;102179.06;10494493;28;20025;-69
2022/05/07 02:46:14;;;;;;;61.80;39.58;;;;;;;11.48;100.00;102192.09;10496562;28;20105;-69
2022/05/07 02:51:15;;;;;;;67.75;39.95;;;;;;;11.44;100.00;102177.06;10495105;28;20033;-68
2022/05/07 02:56:15;;;;;;;58.72;37.72;;;;;;;11.44;100.00;102174.31;10479041;28;20025;-69
2022/05/07 03:01:16;;;;;;;59.22;39.47;;;;;;;11.43;100.00;102178.16;10495809;28;20037;-69
2022/05/07 03:06:16;;;;;;;63.95;38.42;;;;;;;11.45;100.00;102189.81;10511071;28;20447;-69
2022/05/07 03:11:17;;;;;;;62.80;38.63;;;;;;;11.50;100.00;102198.22;10494615;28;20397;-70
2022/05/07 03:16:17;;;;;;;60.42;37.53;;;;;;;11.50;100.00;102189.13;10482266;28;20554;-70
2022/05/07 03:21:18;;;;;;;63.20;39.25;;;;;;;11.52;100.00;102175.94;10452593;28;20037;-69
2022/05/07 03:26:21;;;;;;;67.63;38.75;;;;;;;11.51;100.00;102175.09;10454010;28;20056;-69
2022/05/07 03:31:22;;;;;;;62.10;40.53;;;;;;;11.49;100.00;102176.38;10453974;28;20583;-69
2022/05/07 03:36:22;;;;;;;57.17;38.42;;;;;;;11.47;100.00;102179.38;10453926;28;20132;-69
2022/05/07 03:41:23;;;;;;;62.40;40.17;;;;;;;11.47;100.00;102173.88;10454036;28;20037;-69
2022/05/07 03:46:25;;;;;;;64.38;39.15;;;;;;;11.47;100.00;102173.88;10457922;28;20068;-67
2022/05/07 03:51:25;;;;;;;63.30;38.53;;;;;;;11.44;100.00;102174.31;10463076;28;20049;-68
2022/05/07 03:56:25;;;;;;;60.33;39.67;;;;;;;11.43;100.00;102175.41;10443392;28;20053;-69
2022/05/07 04:01:26;;;;;;;61.78;41.17;;;;;;;11.21;100.00;102130.03;10460921;28;20067;-70
2022/05/07 04:06:28;;;;;;;66.43;42.15;;;;;;;11.55;100.00;102188.41;10460747;28;20026;-69
2022/05/07 04:11:28;;;;;;;65.85;39.05;;;;;;;11.47;100.00;102182.16;10460292;28;20037;-69
2022/05/07 04:16:29;;;;;;;60.90;39.47;;;;;;;11.59;100.00;102200.69;10459586;28;20074;-69
2022/05/07 04:21:29;;;;;;;62.65;41.28;;;;;;;11.32;100.00;102148.56;10500808;28;20094;-69
2022/05/07 04:26:30;;;;;;;64.88;41.38;;;;;;;11.66;100.00;102204.22;10501672;28;20052;-69
2022/05/07 04:31:30;;;;;;;63.60;39.35;;;;;;;11.65;100.00;102203.38;10500962;28;20464;-69
2022/05/07 04:36:31;;;;;;;62.80;40.03;;;;;;;11.68;100.00;102208.44;10500715;28;20082;-69
2022/05/07 04:41:32;;;;;;;64.20;40.25;;;;;;;11.69;100.00;102209.28;10496044;28;20037;-69
2022/05/07 04:46:32;;;;;;;60.33;39.03;;;;;;;11.65;100.00;102206.13;10501106;28;20453;-69
2022/05/07 04:51:33;;;;;;;59.80;39.97;;;;;;;11.71;100.00;102204.38;10500159;28;20059;-65
2022/05/07 04:56:33;;;;;;;63.42;39.67;;;;;;;11.80;100.00;102204.91;10482657;28;20040;-69
2022/05/07 05:01:34;;;;;;;66.57;40.85;;;;;;;11.98;100.00;102212.38;10463891;28;20063;-68
2022/05/07 05:06:34;;;;;;;62.58;39.22;;;;;;;12.11;100.00;102212.19;10458173;28;20033;-69
2022/05/07 05:11:35;;;;;;;59.75;38.13;;;;;;;12.21;100.00;102206.13;10458198;28;20033;-69
2022/05/07 05:16:35;;;;;;;58.47;37.50;;;;;;;12.45;100.00;102223.66;10456910;28;20037;-69
2022/05/07 05:21:36;;;;;;;52.40;33.33;;;;;;;12.55;100.00;102232.22;10473537;28;20037;-70
2022/05/07 05:26:36;;;;;;;45.35;30.95;;;;;;;12.65;100.00;102235.25;10457519;28;20033;-69
2022/05/07 05:31:37;;;;;;;43.03;29.65;;;;;;;12.76;100.00;102241.06;10457657;28;20071;-69
2022/05/07 05:36:37;;;;;;;44.38;30.33;;;;;;;12.77;100.00;102245.50;10457355;28;20083;-69
2022/05/07 05:41:41;;;;;;;44.40;30.17;;;;;;;12.83;100.00;102248.16;10455801;28;20117;-68
2022/05/07 05:46:41;;;;;;;45.28;31.30;;;;;;;12.88;100.00;102241.94;10457775;28;20041;-69
2022/05/07 05:51:42;;;;;;;45.03;31.23;;;;;;;12.98;100.00;102239.44;10456716;28;20104;-70
2022/05/07 05:56:42;;;;;;;41.13;30.88;;;;;;;13.10;100.00;102239.44;10457661;28;20029;-66
2022/05/07 06:01:43;;;;;;;42.65;30.33;;;;;;;13.23;100.00;102252.19;10457359;28;20040;-70
2022/05/07 06:06:43;;;;;;;40.97;28.52;;;;;;;13.38;100.00;102244.31;10473337;28;20409;-69
2022/05/07 06:11:44;;;;;;;38.75;28.58;;;;;;;13.51;100.00;102223.88;10455316;28;20402;-69
2022/05/07 06:16:44;;;;;;;40.53;28.33;;;;;;;13.73;100.00;102232.41;10457604;28;20048;-70
2022/05/07 06:21:45;;;;;;;36.47;26.15;;;;;;;13.97;100.00;102254.50;10457745;28;20071;-69
2022/05/07 06:32:04;;;;;;;34.40;24.85;;;;;;;14.25;100.00;102260.09;10485728;28;20063;-69
2022/05/07 06:37:05;;;;;;;32.58;23.05;;;;;;;14.35;100.00;102267.78;10512600;28;20047;-70
2022/05/07 06:42:06;;;;;;;34.15;25.05;;;;;;;14.44;100.00;102246.91;10497949;28;20059;-69
2022/05/07 06:47:06;;;;;;;34.55;23.40;;;;;;;14.72;100.00;102271.06;10481107;28;20056;-69
2022/05/07 06:52:07;;;;;;;34.28;24.50;;;;;;;14.58;100.00;102210.63;10497720;28;20404;-70
2022/05/07 06:57:08;;;;;;;32.83;25.27;;;;;;;15.23;100.00;102264.72;10490095;28;20037;-69
2022/05/07 07:02:09;;;;;;;31.27;23.75;;;;;;;15.28;100.00;102274.00;10454913;28;20033;-69
2022/05/07 07:07:13;;;;;;;32.22;24.60;;;;;;;15.42;100.00;102285.59;10455078;28;20521;-71
2022/05/07 07:12:14;;;;;;;30.80;24.02;;;;;;;15.53;100.00;102281.03;10453994;28;20111;-70
2022/05/07 07:17:18;;;;;;;33.33;24.02;;;;;;;15.77;100.00;102281.69;10457490;28;20048;-69
2022/05/07 07:22:18;;;;;;;32.35;24.98;;;;;;;16.06;100.00;102270.44;10445573;28;20116;-69
2022/05/07 07:27:19;;;;;;;35.97;23.95;;;;;;;16.24;100.00;102264.56;10462341;28;20440;-69
2022/05/07 07:32:19;;;;;;;35.90;23.25;;;;;;;16.19;100.00;102253.41;10460887;28;20041;-70
2022/05/07 07:37:20;;;;;;;30.48;22.27;;;;;;;16.09;100.00;102256.88;10461075;28;20033;-70
2022/05/07 07:42:23;;;;;;;29.77;21.90;;;;;;;16.16;100.00;102276.13;10461217;28;20044;-69
2022/05/07 07:52:44;;;;;;;27.85;22.25;;;;;;;16.49;100.00;102277.09;10461626;28;20029;-70
2022/05/07 07:57:44;;;;;;;25.30;20.63;;;;;;;16.90;100.00;102272.03;10494705;28;20099;-70
2022/05/07 08:02:49;;;;;;;25.13;20.25;;;;;;;17.17;100.00;102262.81;10501063;28;20040;-69
2022/05/07 08:13:09;;;;;;;31.77;22.33;;;;;;;17.55;100.00;102267.31;10485115;28;20043;-69
2022/05/07 08:18:09;;;;;;;31.77;20.92;;;;;;;17.87;100.00;102272.81;10501392;28;20029;-70
2022/05/07 08:23:10;;;;;;;28.50;20.90;;;;;;;17.93;100.00;102237.47;10507504;28;20049;-70
2022/05/07 08:28:11;;;;;;;33.35;20.58;;;;;;;18.48;100.00;102279.78;10496430;28;20052;-76
2022/05/07 08:33:11;;;;;;;26.52;19.52;;;;;;;18.74;100.00;102294.66;10498233;28;20086;-71
2022/05/07 08:38:12;;;;;;;24.38;19.38;;;;;;;18.98;100.00;102280.22;10501372;28;20100;-69
2022/05/07 08:43:14;;;;;;;26.60;19.13;;;;;;;18.79;100.00;102274.31;10500499;28;20037;-68
2022/05/07 08:48:15;;;;;;;27.58;20.05;;;;;;;18.80;100.00;102287.16;10498620;28;20083;-69
2022/05/07 08:53:15;;;;;;;23.40;19.13;;;;;;;18.50;100.00;102283.13;10482966;28;20059;-70
2022/05/07 08:58:16;;;;;;;28.38;20.80;;;;;;;18.51;100.00;102282.03;10497875;28;20044;-70
2022/05/07 09:03:16;;;;;;;26.13;18.92;;;;;;;18.28;100.00;102292.53;10492971;28;20601;-65
2022/05/07 09:08:17;;;;;;;30.88;21.10;;;;;;;18.08;100.00;102293.25;10500734;28;20040;-69
2022/05/07 09:13:17;;;;;;;29.05;20.25;;;;;;;18.53;100.00;102288.16;10482739;28;20025;-69
2022/05/07 09:18:19;;;;;;;29.73;19.67;;;;;;;19.39;100.00;102286.66;10481289;28;20032;-69
2022/05/07 09:23:22;;;;;;;30.13;21.65;;;;;;;19.83;100.00;102291.66;10496524;28;20059;-69
2022/05/07 09:28:26;;;;;;;32.30;21.63;;;;;;;20.28;97.91;102287.06;10481373;28;20063;-69
2022/05/07 09:33:32;;;;;;;31.73;22.02;;;;;;;20.50;95.05;102285.84;10459741;28;20482;-69
2022/05/07 09:38:32;;;;;;;29.70;22.13;;;;;;;20.42;93.45;102289.22;10460017;28;20045;-69
2022/05/07 09:43:33;;;;;;;30.08;23.05;;;;;;;20.22;93.04;102285.41;10454876;28;20040;-70
2022/05/07 09:48:35;;;;;;;28.50;21.85;;;;;;;20.18;95.77;102295.50;10455865;28;20045;-69
2022/05/07 09:58:55;;;;;;;25.55;21.10;;;;;;;19.79;92.88;102279.38;10440995;28;20131;-70
2022/05/07 10:04:07;;;;;;;29.15;21.67;;;;;;;19.65;94.25;102297.81;10458412;28;20033;-69
2022/05/07 10:09:25;;;;;;;31.60;22.42;;;;;;;19.41;93.31;102292.81;10456729;28;20041;-70
2022/05/07 10:14:26;;;;;;;34.22;24.05;;;;;;;19.13;97.14;102292.22;10457084;28;20033;-69
2022/05/07 10:19:46;;;;;;;31.92;24.17;;;;;;;19.19;99.10;102300.63;10455133;28;20041;-69
2022/05/07 10:24:46;;;;;;;30.25;21.30;;;;;;;19.17;96.70;102303.69;10455633;28;20037;-69
2022/05/07 10:29:47;;;;;;;27.63;19.83;;;;;;;19.21;96.62;102298.41;10456703;28;20044;-68
2022/05/07 10:34:52;;;;;;;28.63;22.70;;;;;;;19.62;94.75;102303.97;10456736;28;20115;-70
2022/05/07 10:39:52;;;;;;;36.17;24.20;;;;;;;19.64;93.68;102301.75;10454418;28;20051;-70
2022/05/07 10:44:53;;;;;;;32.33;20.48;;;;;;;19.52;93.45;102305.66;10465868;28;20051;-70
2022/05/07 10:50:13;;;;;;;30.63;20.85;;;;;;;19.49;96.53;102302.56;10495931;28;20036;-69
2022/05/07 10:55:16;;;;;;;32.70;23.23;;;;;;;19.56;96.02;102306.75;10469847;28;20035;-69
2022/05/07 11:00:20;;;;;;;36.40;23.55;;;;;;;19.53;95.77;102304.53;10478962;28;20036;-69
2022/05/07 11:05:29;;;;;;;35.67;23.30;;;;;;;19.50;95.50;102312.63;10504400;28;20103;-69
2022/05/07 11:10:33;;;;;;;36.47;23.92;;;;;;;19.23;98.15;102318.50;10486610;28;20041;-69
2022/05/07 11:15:33;;;;;;;31.73;22.38;;;;;;;19.13;96.58;102295.03;10503741;28;20033;-69
2022/05/07 11:20:35;;;;;;;32.92;21.85;;;;;;;19.49;99.64;102322.13;10469164;28;20064;-69
2022/05/07 11:25:35;;;;;;;33.85;21.98;;;;;;;19.69;94.37;102312.91;10464606;28;20452;-68
2022/05/07 11:30:36;;;;;;;31.98;22.27;;;;;;;19.79;95.46;102314.88;10461036;28;20037;-69
2022/05/07 11:35:36;;;;;;;33.60;22.65;;;;;;;19.82;91.76;102309.53;10462643;28;20025;-69
2022/05/07 11:40:37;;;;;;;33.15;22.23;;;;;;;19.82;93.20;102331.91;10460302;28;20041;-69
2022/05/07 11:45:37;;;;;;;29.48;20.83;;;;;;;19.70;92.57;102329.41;10461289;28;20033;-69
2022/05/07 11:50:41;;;;;;;32.22;22.17;;;;;;;19.85;91.72;102325.75;10462542;28;20060;-69
2022/05/07 11:55:42;;;;;;;29.73;21.08;;;;;;;20.10;89.75;102321.25;10463501;28;20036;-69
2022/05/07 12:00:44;;;;;;;26.27;20.25;;;;;;;20.29;88.78;102327.03;10460780;28;20408;-69
2022/05/07 12:05:48;;;;;;;24.65;18.25;;;;;;;20.48;87.02;102327.25;10458484;28;20504;-69
2022/05/07 12:10:50;;;;;;;23.70;17.52;;;;;;;20.67;88.03;102319.94;10461408;28;20090;-70
2022/05/07 12:21:11;;;;;;;22.80;15.48;;;;;;;19.96;86.97;102333.00;10460216;28;20095;-69
2022/05/07 12:31:31;;;;;;;18.38;12.25;;;;;;;19.24;91.14;102331.31;10458928;28;20051;-69
2022/05/07 12:36:32;;;;;;;15.82;11.50;;;;;;;19.29;94.62;102340.56;10475165;28;20029;-70
2022/05/07 12:41:32;;;;;;;18.35;11.75;;;;;;;18.95;96.35;102343.00;10459051;28;20044;-70
2022/05/07 12:46:33;;;;;;;15.98;11.30;;;;;;;18.74;100.00;102354.06;10459956;28;20072;-69
2022/05/07 12:51:33;;;;;;;21.60;12.18;;;;;;;18.94;100.00;102344.13;10459802;28;20068;-69
2022/05/07 12:56:34;;;;;;;15.75;11.60;;;;;;;19.66;99.55;102355.38;10446167;28;20040;-68
2022/05/07 13:01:34;;;;;;;19.92;11.35;;;;;;;19.66;99.68;102349.78;10459016;28;20048;-69
2022/05/07 13:06:35;;;;;;;17.30;11.90;;;;;;;19.93;97.64;102349.50;10459951;28;20067;-70
2022/05/07 13:11:35;;;;;;;18.83;12.85;;;;;;;20.94;90.91;102341.06;10480526;28;20036;-69
2022/05/07 13:16:36;;;;;;;15.02;11.50;;;;;;;21.34;89.78;102342.72;10497286;28;20044;-69
2022/05/07 13:21:36;;;;;;;24.73;12.20;;;;;;;21.52;88.39;102341.22;10499422;28;20033;-70
2022/05/07 13:26:38;;;;;;;22.05;15.45;;;;;;;19.63;90.75;102300.06;10497889;28;20037;-72
2022/05/07 13:31:38;;;;;;;18.17;13.10;;;;;;;19.91;95.63;102366.56;10499718;28;20037;-70
2022/05/07 13:36:39;;;;;;;21.67;14.00;;;;;;;21.25;87.64;102347.28;10499866;28;20028;-69
2022/05/07 13:41:39;;;;;;;18.20;13.85;;;;;;;21.41;86.71;102322.78;10514819;28;20067;-70
2022/05/07 13:46:40;;;;;;;16.48;13.68;;;;;;;21.89;85.45;102344.50;10497313;28;20111;-69
2022/05/07 13:51:40;;;;;;;16.48;13.02;;;;;;;21.53;80.80;102328.03;10455870;28;20041;-68
2022/05/07 13:56:41;;;;;;;18.33;11.90;;;;;;;22.27;79.52;102286.63;10456481;28;20045;-69
2022/05/07 14:01:41;;;;;;;15.70;10.43;;;;;;;22.55;73.96;102324.16;10471770;28;20037;-70
2022/05/07 14:06:42;;;;;;;14.88;9.25;;;;;;;22.38;75.80;102323.81;10467528;28;20125;-70
2022/05/07 14:11:42;;;;;;;10.02;6.25;;;;;;;22.07;74.51;102329.75;10495442;28;20021;-69
2022/05/07 14:16:44;;;;;;;9.73;6.45;;;;;;;20.72;83.11;102361.88;10498478;28;20032;-69
2022/05/07 14:21:44;;;;;;;8.73;6.47;;;;;;;20.05;90.23;102374.34;10455670;28;20037;-71
2022/05/07 14:26:45;;;;;;;8.43;5.85;;;;;;;20.57;88.87;102373.09;10437581;28;20190;-71
2022/05/07 14:31:45;;;;;;;7.30;5.65;;;;;;;21.35;83.80;102363.16;10454974;28;20052;-69
2022/05/07 14:36:46;;;;;;;7.10;5.22;;;;;;;21.78;82.07;102355.00;10454787;28;20044;-69
2022/05/07 14:41:46;;;;;;;8.18;5.18;;;;;;;22.21;79.74;102355.13;10454676;28;20040;-70
2022/05/07 14:46:47;;;;;;;8.82;6.00;;;;;;;22.36;78.71;102354.97;10455677;28;20041;-67
2022/05/07 14:51:47;;;;;;;6.97;5.10;;;;;;;22.74;77.26;102349.44;10465700;28;20079;-83
2022/05/07 14:56:48;;;;;;;7.68;6.22;;;;;;;21.92;80.61;102371.97;10494953;28;20029;-78
2022/05/07 15:01:48;;;;;;;7.88;6.80;;;;;;;20.59;82.76;102384.88;10496197;28;20392;-87
2022/05/07 15:06:49;;;;;;;10.70;7.13;;;;;;;20.06;87.97;102396.44;10478529;28;20040;-84
2022/05/07 15:11:49;;;;;;;8.35;6.32;;;;;;;20.20;89.17;102393.91;10500809;28;20043;-91
2022/05/07 15:16:51;;;;;;;10.15;6.22;;;;;;;21.29;83.59;102396.00;10461254;28;20040;-82
2022/05/07 15:21:51;;;;;;;10.40;5.22;;;;;;;21.37;79.33;102383.31;10453253;28;20649;-83
2022/05/07 15:26:52;;;;;;;7.82;4.93;;;;;;;20.41;82.38;102394.69;10453141;28;20092;-73
2022/05/07 15:37:12;;;;;;;4.70;3.88;;;;;;;18.82;88.89;102416.06;10493094;28;20097;-66
2022/05/07 15:42:12;;;;;;;7.63;4.60;;;;;;;18.62;91.97;102425.97;10502017;28;20039;-65
2022/05/07 15:47:13;;;;;;;13.80;4.47;;;;;;;18.16;93.00;102417.34;10502196;28;20040;-65
2022/05/07 15:52:14;;;;;;;6.40;3.45;;;;;;;17.79;94.75;102434.84;10468257;28;20037;-66
2022/05/07 15:57:15;;;;;;;4.05;3.65;;;;;;;17.44;96.16;102421.44;10501301;28;20106;-66
2022/05/07 16:02:15;;;;;;;6.38;4.30;;;;;;;17.94;92.69;102432.25;10502552;28;20142;-66
2022/05/07 16:07:16;;;;;;;8.23;3.88;;;;;;;18.47;90.36;102420.34;10501444;28;20029;-66
2022/05/07 16:12:16;;;;;;;5.43;3.25;;;;;;;20.06;84.86;102409.59;10485558;28;20048;-65
2022/05/07 16:17:17;;;;;;;6.30;3.20;;;;;;;21.43;77.90;102409.38;10500708;28;20051;-65
2022/05/07 16:27:37;;;;;;;6.57;3.13;;;;;;;21.80;72.38;102380.78;10500615;28;20419;-66
2022/05/07 16:32:37;;;;;;;4.60;1.80;;;;;;;22.23;69.50;102378.13;10499768;28;20036;-65
2022/05/07 16:37:38;;;;;;;5.35;2.05;;;;;;;21.92;68.34;102400.00;10479458;28;20421;-68
2022/05/07 16:42:38;;;;;;;5.72;2.17;;;;;;;21.85;68.56;102405.09;10460498;28;20045;-66
2022/05/07 16:47:40;;;;;;;3.33;1.88;;;;;;;21.12;68.93;102404.75;10458411;28;20044;-65
2022/05/07 16:52:41;;;;;;;5.45;1.90;;;;;;;20.60;69.00;102405.31;10457510;28;20037;-66
2022/05/07 16:57:42;;;;;;;8.45;2.38;;;;;;;20.65;70.41;102408.94;10467818;28;20047;-66
2022/05/07 17:02:42;;;;;;;4.78;2.42;;;;;;;19.63;74.89;102409.00;10481601;28;20572;-74
2022/05/07 17:07:43;;;;;;;6.35;3.20;;;;;;;18.56;80.60;102446.59;10457698;28;20029;-73
2022/05/07 17:12:43;;;;;;;7.55;2.97;;;;;;;17.88;81.26;102444.47;10458996;28;20033;-73
2022/05/07 17:17:44;;;;;;;6.43;2.60;;;;;;;17.50;84.37;102459.38;10457079;28;20436;-74
2022/05/07 17:22:44;;;;;;;9.82;3.88;;;;;;;16.71;85.72;102464.25;10458135;28;20574;-71
2022/05/07 17:27:45;;;;;;;7.63;3.42;;;;;;;16.08;91.30;102479.38;10458082;28;20029;-72
2022/05/07 17:32:45;;;;;;;10.88;4.43;;;;;;;15.72;96.70;102474.06;10460994;28;20037;-72
2022/05/07 17:37:46;;;;;;;11.07;5.15;;;;;;;15.08;100.00;102479.72;10463944;28;20052;-71
2022/05/07 17:42:52;;;;;;;15.90;6.28;;;;;;;14.78;100.00;102476.28;10458766;28;20033;-71
2022/05/07 17:53:12;;;;;;;10.25;6.00;;;;;;;13.90;100.00;102474.19;10455503;28;19927;-71
2022/05/07 17:58:12;;;;;;;14.63;6.93;;;;;;;13.75;100.00;102475.75;10454969;28;20043;-70
2022/05/07 18:03:13;;;;;;;14.30;7.40;;;;;;;13.49;100.00;102503.56;10484942;28;20047;-71
2022/05/07 18:08:13;;;;;;;15.52;6.45;;;;;;;13.08;100.00;102488.56;10498422;28;20036;-71
2022/05/07 18:13:15;;;;;;;10.93;6.05;;;;;;;12.97;100.00;102518.88;10478267;28;20036;-72
2022/05/07 18:18:16;;;;;;;12.80;7.03;;;;;;;12.88;100.00;102526.66;10496288;28;20074;-72
2022/05/07 18:23:17;;;;;;;11.60;6.90;;;;;;;12.80;100.00;102529.72;10495104;28;20548;-72
2022/05/07 18:28:18;;;;;;;11.52;6.43;;;;;;;12.78;100.00;102538.22;10494362;28;20092;-71
2022/05/07 18:33:18;;;;;;;12.05;6.43;;;;;;;12.69;100.00;102545.09;10458967;28;20032;-77
2022/05/07 18:43:38;;;;;;;13.77;6.60;;;;;;;12.69;100.00;102551.50;10495936;28;20040;-72
2022/05/07 18:48:39;;;;;;;11.82;7.10;;;;;;;12.52;100.00;102533.78;10493071;28;20500;-72
2022/05/07 18:53:40;;;;;;;14.32;6.20;;;;;;;12.46;100.00;102548.50;10493671;28;20035;-72
2022/05/07 18:58:41;;;;;;;9.60;5.15;;;;;;;12.38;100.00;102559.84;10432053;28;20602;-72
2022/05/07 19:03:43;;;;;;;12.45;5.88;;;;;;;12.30;100.00;102574.78;10453930;28;20041;-72
2022/05/07 19:08:43;;;;;;;12.30;5.82;;;;;;;12.24;100.00;102573.75;10454487;28;20037;-72
2022/05/07 19:13:44;;;;;;;11.77;6.15;;;;;;;12.00;100.00;102558.84;10456427;28;20040;-72
2022/05/07 19:18:44;;;;;;;13.18;6.18;;;;;;;12.08;100.00;102588.09;10461820;28;20037;-71
2022/05/07 19:23:45;;;;;;;12.25;5.70;;;;;;;12.14;100.00;102597.44;10460875;28;20045;-72
2022/05/07 19:28:45;;;;;;;11.70;5.97;;;;;;;12.02;100.00;102597.28;10461082;28;20059;-72
2022/05/07 19:33:47;;;;;;;13.27;5.68;;;;;;;11.89;100.00;102607.34;10464253;28;20033;-71
2022/05/07 19:38:48;;;;;;;12.98;6.75;;;;;;;11.73;100.00;102613.31;10461747;28;20036;-72
2022/05/07 19:43:49;;;;;;;17.85;6.40;;;;;;;11.62;100.00;102620.38;10462502;28;20047;-73
2022/05/07 19:48:49;;;;;;;23.05;7.80;;;;;;;11.44;100.00;102618.31;10443231;28;20048;-68
2022/05/07 19:53:50;;;;;;;16.95;6.43;;;;;;;11.16;100.00;102623.28;10462062;28;20070;-71
2022/05/07 19:58:50;;;;;;;15.32;6.32;;;;;;;10.82;100.00;102584.75;10460094;28;20174;-71
2022/05/07 20:03:51;;;;;;;20.27;5.68;;;;;;;10.93;100.00;102654.91;10460243;28;20083;-71
2022/05/07 20:08:52;;;;;;;24.80;7.13;;;;;;;10.17;100.00;102568.03;10459785;28;20044;-71
2022/05/07 20:13:53;;;;;;;21.23;5.55;;;;;;;10.47;100.00;102639.22;10461551;28;20029;-71
2022/05/07 20:18:54;;;;;;;18.27;7.10;;;;;;;10.38;100.00;102655.09;10459319;28;20033;-71
2022/05/07 20:23:55;;;;;;;15.80;4.57;;;;;;;10.24;100.00;102664.34;10458612;28;20033;-70
2022/05/07 20:28:56;;;;;;;15.43;4.25;;;;;;;10.07;100.00;102680.41;10458013;28;20047;-70
2022/05/07 20:33:57;;;;;;;19.35;4.25;;;;;;;9.84;100.00;102662.34;10460746;28;20049;-71
2022/05/07 20:38:57;;;;;;;20.83;4.70;;;;;;;9.86;100.00;102674.00;10459266;28;20085;-71
2022/05/07 20:49:17;;;;;;;17.85;4.03;;;;;;;9.61;100.00;102681.03;10495829;28;20108;-72
2022/05/07 20:54:18;;;;;;;21.13;4.03;;;;;;;9.47;100.00;102680.97;10479065;28;20041;-70
2022/05/07 20:59:20;;;;;;;21.73;5.38;;;;;;;9.47;100.00;102689.22;10442741;28;20127;-70
2022/05/07 21:04:21;;;;;;;23.35;3.70;;;;;;;9.39;100.00;102672.91;10459211;28;20033;-71
2022/05/07 21:09:22;;;;;;;21.55;3.65;;;;;;;9.34;100.00;102694.63;10473682;28;20037;-71
2022/05/07 21:14:22;;;;;;;36.20;5.78;;;;;;;9.26;100.00;102694.78;10458099;28;20037;-71
2022/05/07 21:19:23;;;;;;;26.63;4.60;;;;;;;9.19;100.00;102689.25;10456172;28;20029;-71
2022/05/07 21:26:32;;;;;;;24.50;4.07;;;;;;;9.09;100.00;102695.13;10457724;28;20041;-70
2022/05/07 21:29:45;;;;;;;26.33;4.88;;;;;;;9.00;100.00;102704.53;10459985;28;20037;-71
2022/05/07 21:34:45;;;;;;;23.33;4.55;;;;;;;8.83;100.00;102686.66;10458843;28;20468;-71
2022/05/07 21:39:46;;;;;;;23.02;4.68;;;;;;;8.50;100.00;102651.53;10455335;28;20059;-71
2022/05/07 21:44:47;;;;;;;22.15;5.45;;;;;;;8.75;100.00;102712.38;10456452;28;20033;-71
2022/05/07 21:49:47;;;;;;;24.70;5.18;;;;;;;8.69;100.00;102722.22;10455876;28;20048;-71
2022/05/07 21:54:48;;;;;;;21.20;3.75;;;;;;;8.48;100.00;102698.38;10458265;28;20048;-71
2022/05/07 21:59:48;;;;;;;25.52;5.13;;;;;;;8.46;100.00;102713.34;10465883;28;20040;-71
2022/05/07 22:04:49;;;;;;;26.00;5.15;;;;;;;8.53;100.00;102732.63;10492331;28;20028;-71
2022/05/07 22:09:49;;;;;;;18.85;4.97;;;;;;;8.49;100.00;102726.66;10497000;28;20033;-71
2022/05/07 22:14:49;;;;;;;22.17;4.55;;;;;;;8.48;100.00;102727.72;10496692;28;20334;-71
2022/05/07 22:19:50;;;;;;;22.25;5.35;;;;;;;8.42;100.00;102729.34;10498490;28;20040;-71
2022/05/07 22:24:50;;;;;;;25.90;5.15;;;;;;;8.38;100.00;102730.75;10463198;28;20043;-71
2022/05/07 22:29:51;;;;;;;19.67;5.15;;;;;;;8.28;100.00;102725.56;10497975;28;20058;-70
2022/05/07 22:34:51;;;;;;;15.88;4.05;;;;;;;8.30;100.00;102733.63;10479662;28;20111;-71
2022/05/07 22:39:52;;;;;;;19.75;4.63;;;;;;;8.25;100.00;102734.19;10497981;28;20028;-71
2022/05/07 22:44:52;;;;;;;21.00;4.90;;;;;;;8.18;100.00;102735.16;10496795;28;20033;-72
2022/05/07 22:49:56;;;;;;;32.45;7.45;;;;;;;8.14;100.00;102740.16;10467887;28;20033;-71
2022/05/07 22:54:57;;;;;;;20.17;4.15;;;;;;;8.12;100.00;102746.91;10488624;28;20116;-70
2022/05/07 22:59:57;;;;;;;27.35;4.82;;;;;;;7.96;100.00;102747.97;10505209;28;20039;-71
2022/05/07 23:04:58;;;;;;;30.00;5.10;;;;;;;7.87;100.00;102747.22;10504366;28;20449;-71
2022/05/07 23:09:58;;;;;;;25.13;5.07;;;;;;;7.83;100.00;102746.75;10503215;28;20094;-71
2022/05/07 23:14:59;;;;;;;24.30;5.85;;;;;;;7.82;100.00;102747.78;10503681;28;20033;-71
2022/05/07 23:19:59;;;;;;;18.60;4.47;;;;;;;7.77;100.00;102744.78;10473615;28;20041;-71
2022/05/07 23:25:00;;;;;;;24.30;4.72;;;;;;;7.80;100.00;102744.38;10464247;28;20045;-69
2022/05/07 23:30:00;;;;;;;21.92;4.05;;;;;;;7.82;100.00;102752.44;10445729;28;20049;-70
2022/05/07 23:35:02;;;;;;;19.75;4.43;;;;;;;7.79;100.00;102750.94;10461748;28;20031;-71
2022/05/07 23:40:03;;;;;;;21.00;4.13;;;;;;;7.75;100.00;102741.38;10461458;28;20123;-71